Аэропорт: Пулково. Санкт-Петербург

ICAO: ULLI

METAR:
2020-08-12 05:30:00
ULLI 120530Z 34005MPS 9999 SCT020 14/09 Q1022 R28L/090060 NOSIG
METAR:
2020-08-12 01:59:00
TAF ULLI 120159Z 1203/1303 36003MPS 9999 BKN020 TEMPO 1203/1205 33003MPS BKN016 BECMG 1205/1207 01005MPS TEMPO 1207/1218 35005G10MPS -SHRA BKN016CB TEMPO 1218/1224 30002MPS